Time;durP1;ratioP1;P1;durP2;ratioP2;P2;SDS_P1;SDS_P2;PMS_P1;PMS_P2;Temp;Humidity;BMP_temperature;BMP_pressure;BME280_temperature;BME280_humidity;BME280_pressure;Samples;Min_cycle;Max_cycle;Signal;HPM_P1;HPM_P2
2021/07/28 00:00:15;;;;;;;34.45;17.52;;;;;;;20.08;68.66;100779.23;1735330;81;21369;-59
2021/07/28 00:03:21;;;;;;;35.10;17.10;;;;;;;20.07;68.70;100777.54;1736781;81;21267;-59
2021/07/28 00:06:31;;;;;;;37.00;18.10;;;;;;;20.05;68.80;100776.05;1735342;81;21473;-59
2021/07/28 00:09:36;;;;;;;32.13;16.80;;;;;;;20.03;68.94;100769.86;1735319;81;21771;-58
2021/07/28 00:12:42;;;;;;;33.08;15.45;;;;;;;19.99;68.99;100763.93;1734760;81;21880;-58
2021/07/28 00:15:50;;;;;;;28.80;15.90;;;;;;;20.00;69.14;100757.81;1735198;81;21263;-59
2021/07/28 00:25:30;;;;;;;30.12;15.85;;;;;;;19.98;69.45;100748.31;1747825;80;21387;-59
2021/07/28 00:28:37;;;;;;;29.52;15.13;;;;;;;19.97;69.29;100742.98;1758631;81;21758;-59
2021/07/28 00:31:43;;;;;;;36.50;16.05;;;;;;;19.96;69.66;100748.24;1768236;79;21345;-59
2021/07/28 00:34:50;;;;;;;42.73;16.70;;;;;;;19.95;69.94;100747.38;1768763;80;21221;-59
2021/07/28 00:37:58;;;;;;;41.60;16.17;;;;;;;19.93;70.13;100742.58;1756861;81;21219;-58
2021/07/28 00:41:06;;;;;;;36.08;14.50;;;;;;;19.87;70.32;100734.33;1752444;80;21278;-59
2021/07/28 00:44:11;;;;;;;37.50;15.38;;;;;;;19.85;70.23;100738.70;1752526;82;21353;-59
2021/07/28 00:47:15;;;;;;;47.45;14.75;;;;;;;19.89;70.26;100746.05;1752477;82;21210;-59
2021/07/28 00:50:21;;;;;;;42.33;14.03;;;;;;;19.94;69.89;100751.78;1735408;81;21227;-58
2021/07/28 00:53:26;;;;;;;46.90;14.10;;;;;;;19.95;69.36;100747.91;1752552;82;21210;-59
2021/07/28 00:56:34;;;;;;;51.90;13.85;;;;;;;19.98;68.78;100751.09;1752531;80;21286;-59
2021/07/28 00:59:39;;;;;;;35.38;12.68;;;;;;;19.95;68.16;100745.13;1752405;80;21254;-59
2021/07/28 01:02:46;;;;;;;49.80;13.58;;;;;;;19.87;68.02;100749.05;1752666;82;21873;-59
2021/07/28 01:05:51;;;;;;;27.13;12.88;;;;;;;19.83;68.29;100743.66;1752465;80;21357;-59
2021/07/28 01:08:59;;;;;;;34.65;12.20;;;;;;;19.81;67.81;100742.16;1752542;82;21719;-59
2021/07/28 01:12:05;;;;;;;36.10;13.35;;;;;;;19.80;68.02;100752.45;1735503;82;21345;-59
2021/07/28 01:15:21;;;;;;;33.35;12.50;;;;;;;19.84;67.97;100759.23;1752599;80;21269;-59
2021/07/28 01:18:19;;;;;;;26.15;12.80;;;;;;;19.85;67.63;100744.81;1752566;82;21203;-59
2021/07/28 01:21:28;;;;;;;27.40;13.48;;;;;;;19.85;67.62;100750.38;1752575;80;21260;-59
2021/07/28 01:24:33;;;;;;;29.85;13.20;;;;;;;19.84;67.61;100744.48;1752601;80;21719;-59
2021/07/28 01:27:39;;;;;;;32.15;12.98;;;;;;;19.84;67.85;100742.56;1752637;82;21179;-59
2021/07/28 01:30:45;;;;;;;30.40;13.00;;;;;;;19.86;67.62;100747.37;1751898;80;21388;-59
2021/07/28 01:33:53;;;;;;;34.20;13.28;;;;;;;19.86;67.55;100745.12;1768196;81;21867;-59
2021/07/28 01:36:58;;;;;;;32.00;13.35;;;;;;;19.85;67.46;100737.87;1768292;81;21875;-59
2021/07/28 01:40:03;;;;;;;28.67;13.18;;;;;;;19.88;67.40;100734.63;1768139;80;21198;-59
2021/07/28 01:43:12;;;;;;;31.07;12.47;;;;;;;19.88;67.60;100734.10;1768166;81;21380;-59
2021/07/28 01:46:18;;;;;;;32.33;12.82;;;;;;;19.86;67.83;100735.39;1752193;81;21376;-59
2021/07/28 01:49:24;;;;;;;34.65;13.25;;;;;;;19.82;67.94;100728.04;1768154;81;21203;-59
2021/07/28 01:52:31;;;;;;;32.60;13.13;;;;;;;19.78;68.16;100734.28;1768277;81;21917;-59
2021/07/28 01:55:37;;;;;;;28.77;13.30;;;;;;;19.76;68.43;100728.09;1768161;80;21388;-59
2021/07/28 01:58:46;;;;;;;31.17;11.93;;;;;;;19.78;68.58;100728.72;1768188;81;21254;-59
2021/07/28 02:01:49;;;;;;;25.57;11.80;;;;;;;19.82;68.57;100736.38;1768245;80;21710;-59
2021/07/28 02:04:56;;;;;;;31.35;12.53;;;;;;;19.83;68.46;100726.98;1768204;80;21321;-59
2021/07/28 02:08:08;;;;;;;29.25;11.90;;;;;;;19.80;67.93;100740.47;1768129;81;21826;-59
2021/07/28 02:11:11;;;;;;;35.78;12.43;;;;;;;19.78;68.14;100745.40;1768194;80;21269;-59
2021/07/28 02:14:17;;;;;;;41.68;12.50;;;;;;;19.77;68.20;100735.37;1768157;81;21388;-60
2021/07/28 02:17:23;;;;;;;29.48;12.03;;;;;;;19.78;68.18;100743.48;1768181;81;21324;-59
2021/07/28 02:20:29;;;;;;;37.08;11.80;;;;;;;19.79;68.26;100744.34;1768190;80;21777;-59
2021/07/28 02:23:35;;;;;;;27.93;10.70;;;;;;;19.81;68.35;100738.86;1768130;81;21349;-60
2021/07/28 02:26:42;;;;;;;31.93;10.32;;;;;;;19.85;67.83;100732.31;1768153;80;21364;-60
2021/07/28 02:29:47;;;;;;;24.72;10.20;;;;;;;19.80;67.57;100736.30;1768214;80;21451;-58
2021/07/28 02:32:54;;;;;;;32.00;10.88;;;;;;;19.71;67.52;100737.11;1763698;81;21385;-59
2021/07/28 02:36:02;;;;;;;39.88;18.50;;;;;;;19.65;67.69;100733.86;1760143;80;21206;-59
2021/07/28 02:39:09;;;;;;;38.55;20.27;;;;;;;19.63;67.69;100740.17;1760220;81;21222;-59
2021/07/28 02:42:15;;;;;;;45.38;22.50;;;;;;;19.63;67.60;100733.78;1760170;81;21229;-59
2021/07/28 02:45:21;;;;;;;43.98;26.75;;;;;;;19.61;67.76;100729.84;1760020;80;21213;-59
2021/07/28 02:48:21;;;;;;;40.05;23.67;;;;;;;19.60;67.81;100739.80;1760016;81;21217;-59
2021/07/28 02:51:26;;;;;;;34.43;17.42;;;;;;;19.60;67.95;100743.97;1760127;80;21238;-58
2021/07/28 02:54:34;;;;;;;37.33;16.52;;;;;;;19.64;68.47;100740.50;1760247;80;21187;-59
2021/07/28 02:57:42;;;;;;;31.23;18.23;;;;;;;19.70;68.98;100738.73;1759954;81;21805;-59
2021/07/28 03:00:48;;;;;;;40.73;17.80;;;;;;;19.78;69.10;100742.09;1759996;80;21222;-58
2021/07/28 03:03:55;;;;;;;31.07;16.82;;;;;;;19.89;68.85;100739.09;1759995;81;21206;-59
2021/07/28 03:06:59;;;;;;;28.10;14.53;;;;;;;19.98;68.41;100735.80;1760073;81;21210;-59
2021/07/28 03:10:06;;;;;;;28.75;13.93;;;;;;;20.10;68.14;100738.70;1760139;80;21234;-59
2021/07/28 03:13:13;;;;;;;33.15;13.15;;;;;;;20.21;67.89;100737.97;1760177;81;21575;-59
2021/07/28 03:16:22;;;;;;;27.35;11.43;;;;;;;20.30;67.80;100742.14;1760027;80;21203;-59
2021/07/28 03:19:31;;;;;;;25.05;11.25;;;;;;;20.38;67.62;100735.75;1760124;80;21207;-59
2021/07/28 03:22:36;;;;;;;25.35;11.63;;;;;;;20.50;67.19;100733.06;1760072;81;21199;-60
2021/07/28 03:25:41;;;;;;;17.90;10.70;;;;;;;20.59;66.85;100738.61;1743891;81;21391;-60
2021/07/28 03:28:46;;;;;;;25.75;11.88;;;;;;;20.67;66.33;100739.69;1760055;81;21194;-60
2021/07/28 03:31:54;;;;;;;19.92;11.12;;;;;;;20.75;66.14;100732.42;1759941;81;21249;-59
2021/07/28 03:35:01;;;;;;;25.80;12.18;;;;;;;20.81;66.10;100730.09;1759925;80;21344;-60
2021/07/28 03:38:06;;;;;;;20.62;11.35;;;;;;;20.88;65.47;100733.66;1762572;81;21393;-60
2021/07/28 03:41:13;;;;;;;17.82;10.38;;;;;;;20.96;65.25;100725.02;1762604;80;21210;-60
2021/07/28 03:44:19;;;;;;;19.73;11.28;;;;;;;21.07;65.09;100724.75;1762483;81;21337;-60
2021/07/28 03:47:25;;;;;;;24.05;11.45;;;;;;;21.20;64.73;100719.82;1762587;81;21198;-60
2021/07/28 03:50:29;;;;;;;23.42;11.80;;;;;;;21.33;64.48;100714.06;1762497;80;21415;-60
2021/07/28 03:53:37;;;;;;;18.67;10.68;;;;;;;21.47;63.69;100718.89;1762393;81;21349;-60
2021/07/28 03:56:48;;;;;;;18.82;10.58;;;;;;;21.57;63.30;100711.64;1762492;80;21369;-59
2021/07/28 03:59:53;;;;;;;20.57;10.70;;;;;;;21.71;63.10;100707.54;1762429;80;21356;-60
2021/07/28 04:03:00;;;;;;;27.65;11.93;;;;;;;21.84;62.98;100694.81;1762612;81;21255;-60
2021/07/28 04:06:07;;;;;;;22.52;10.95;;;;;;;21.99;62.10;100686.80;1762339;80;21861;-60
2021/07/28 04:09:13;;;;;;;21.52;11.20;;;;;;;22.13;61.93;100686.88;1762599;81;21198;-60
2021/07/28 04:12:18;;;;;;;17.73;10.48;;;;;;;22.21;61.26;100685.65;1762405;81;21412;-59
2021/07/28 04:15:25;;;;;;;20.27;10.78;;;;;;;22.38;60.46;100680.14;1737558;81;21949;-59
2021/07/28 04:18:32;;;;;;;40.83;11.65;;;;;;;22.50;59.93;100683.78;1762248;81;21194;-61
2021/07/28 04:21:38;;;;;;;24.85;11.00;;;;;;;22.60;59.68;100677.03;1762389;81;21419;-58
2021/07/28 04:24:43;;;;;;;26.00;10.88;;;;;;;22.69;59.79;100683.95;1762507;81;21337;-58
2021/07/28 04:27:50;;;;;;;24.63;10.43;;;;;;;22.79;59.99;100678.55;1758996;81;21352;-60
2021/07/28 04:30:56;;;;;;;23.87;10.20;;;;;;;22.90;60.07;100671.53;1739764;80;21201;-59
2021/07/28 04:34:03;;;;;;;23.42;10.05;;;;;;;22.99;60.29;100676.19;1756997;81;21748;-60
2021/07/28 04:37:09;;;;;;;25.40;9.78;;;;;;;23.07;60.40;100672.98;1696140;84;21248;-61
2021/07/28 04:40:15;;;;;;;20.43;9.90;;;;;;;23.11;60.55;100666.65;1692120;83;21243;-60
2021/07/28 04:43:21;;;;;;;24.07;10.10;;;;;;;23.13;61.08;100666.40;1719232;81;21257;-60
2021/07/28 04:46:27;;;;;;;23.00;10.15;;;;;;;23.11;61.18;100661.06;1732007;82;21408;-61
2021/07/28 04:49:33;;;;;;;21.35;11.63;;;;;;;23.13;61.50;100666.40;1765523;80;21379;-64
2021/07/28 04:52:40;;;;;;;21.95;11.15;;;;;;;23.18;61.78;100663.70;1777780;80;21434;-60
2021/07/28 04:55:49;;;;;;;23.27;10.08;;;;;;;23.28;62.09;100671.74;1743910;81;21257;-59
2021/07/28 04:58:58;;;;;;;23.83;10.43;;;;;;;23.38;62.25;100671.94;1726413;81;21818;-59
2021/07/28 05:02:08;;;;;;;22.77;11.25;;;;;;;23.48;61.67;100668.47;1713326;83;21265;-59
2021/07/28 05:05:14;;;;;;;26.60;11.83;;;;;;;23.56;61.46;100664.69;1736391;81;21782;-58
2021/07/28 05:08:21;;;;;;;29.40;14.00;;;;;;;23.69;61.65;100669.09;1720895;83;21209;-59
2021/07/28 05:11:25;;;;;;;22.37;13.35;;;;;;;23.81;61.23;100667.07;1720906;82;21399;-59
2021/07/28 05:14:34;;;;;;;23.73;13.70;;;;;;;23.95;60.62;100664.76;1737001;82;21191;-59
2021/07/28 05:17:42;;;;;;;26.17;13.55;;;;;;;24.06;60.40;100674.48;1740262;81;21977;-59
2021/07/28 05:20:50;;;;;;;22.93;13.50;;;;;;;24.18;60.17;100660.40;1758608;81;21443;-60
2021/07/28 05:23:57;;;;;;;37.17;15.45;;;;;;;24.29;59.86;100664.46;1736761;82;21251;-58
2021/07/28 05:27:02;;;;;;;29.48;14.30;;;;;;;24.38;59.59;100662.08;1736913;82;21936;-58
2021/07/28 05:30:11;;;;;;;25.08;13.15;;;;;;;24.50;59.38;100651.05;1737159;82;21849;-59
2021/07/28 05:33:16;;;;;;;31.95;12.78;;;;;;;24.63;59.25;100636.66;1737083;82;21313;-58
2021/07/28 05:36:22;;;;;;;18.40;11.80;;;;;;;24.76;59.25;100631.23;1735589;82;21878;-58
2021/07/28 05:39:29;;;;;;;24.75;12.58;;;;;;;24.89;59.08;100619.05;1740054;82;21382;-58
2021/07/28 05:42:42;;;;;;;23.15;12.60;;;;;;;25.07;58.75;100618.42;1740177;82;21885;-59
2021/07/28 05:45:51;;;;;;;25.32;12.80;;;;;;;25.25;59.26;100609.61;1742585;82;21900;-58
2021/07/28 05:49:02;;;;;;;23.27;12.43;;;;;;;25.46;59.12;100610.97;1740100;82;21289;-58
2021/07/28 05:52:14;;;;;;;24.72;13.05;;;;;;;25.72;58.97;100605.01;1740087;82;21873;-58
2021/07/28 05:55:20;;;;;;;26.85;12.65;;;;;;;25.93;57.18;100602.06;1740140;82;21491;-58
2021/07/28 05:58:26;;;;;;;28.17;12.78;;;;;;;26.05;56.23;100596.28;1740250;82;21363;-59
2021/07/28 06:01:31;;;;;;;22.27;13.38;;;;;;;26.13;55.78;100600.80;1740050;82;21265;-59
2021/07/28 06:04:37;;;;;;;25.12;12.50;;;;;;;26.27;55.89;100608.19;1754957;79;21893;-57
2021/07/28 06:07:48;;;;;;;22.58;13.20;;;;;;;26.40;54.03;100603.48;1754846;79;21855;-56
2021/07/28 06:10:54;;;;;;;22.27;12.53;;;;;;;26.59;53.60;100606.09;1780993;79;21735;-57
2021/07/28 06:14:01;;;;;;;25.00;12.47;;;;;;;26.80;53.93;100611.25;1776374;79;21348;-58
2021/07/28 06:17:07;;;;;;;26.68;12.93;;;;;;;27.06;53.78;100604.55;1764235;81;21207;-59
2021/07/28 06:20:17;;;;;;;23.98;13.15;;;;;;;27.35;53.88;100602.34;1755125;81;21210;-58
2021/07/28 06:23:25;;;;;;;27.50;13.62;;;;;;;27.66;51.59;100591.39;1770330;81;21249;-59
2021/07/28 06:26:31;;;;;;;27.20;14.30;;;;;;;27.98;50.33;100598.68;1777623;79;21236;-59
2021/07/28 06:29:42;;;;;;;26.37;13.15;;;;;;;28.20;49.08;100600.59;1769849;80;21354;-57
2021/07/28 06:32:51;;;;;;;29.65;13.18;;;;;;;28.34;48.27;100591.25;1753549;80;21429;-57
2021/07/28 06:35:59;;;;;;;23.10;13.18;;;;;;;28.45;48.22;100585.85;1770474;81;21229;-59
2021/07/28 06:39:04;;;;;;;32.73;13.93;;;;;;;28.54;47.45;100594.00;1752426;82;21219;-59
2021/07/28 06:42:10;;;;;;;28.42;14.18;;;;;;;28.59;47.17;100583.30;1746429;80;21229;-59
2021/07/28 06:45:17;;;;;;;28.35;14.33;;;;;;;28.65;47.45;100577.36;1708603;81;21882;-59
2021/07/28 06:48:23;;;;;;;30.72;13.88;;;;;;;28.71;47.31;100572.52;1751753;82;21291;-59
2021/07/28 06:51:31;;;;;;;30.50;14.20;;;;;;;28.75;46.84;100583.47;1732376;80;21403;-60
2021/07/28 06:54:40;;;;;;;26.62;14.28;;;;;;;28.79;46.48;100581.77;1712890;83;21272;-58
2021/07/28 06:57:49;;;;;;;26.73;13.00;;;;;;;28.81;46.06;100579.52;1722474;82;21333;-60
2021/07/28 07:00:58;;;;;;;22.52;12.73;;;;;;;28.82;45.84;100574.99;1728431;83;21874;-59
2021/07/28 07:04:04;;;;;;;24.75;12.15;;;;;;;28.88;45.36;100575.79;1699080;81;21301;-60
2021/07/28 07:07:12;;;;;;;25.90;12.37;;;;;;;28.88;45.36;100575.79;1741027;82;21815;-61
2021/07/28 07:10:21;;;;;;;24.52;12.98;;;;;;;28.94;46.10;100576.03;1742579;81;21775;-60
2021/07/28 07:13:26;;;;;;;26.00;13.38;;;;;;;28.99;46.28;100574.59;1743171;81;21708;-59
2021/07/28 07:16:34;;;;;;;21.35;11.93;;;;;;;29.03;46.26;100577.11;1715999;80;21215;-59
2021/07/28 07:19:42;;;;;;;26.60;13.55;;;;;;;29.09;46.40;100573.16;1666433;85;21331;-58
2021/07/28 07:22:49;;;;;;;26.05;12.47;;;;;;;29.14;46.67;100566.06;1706294;83;21226;-58
2021/07/28 07:25:58;;;;;;;28.17;11.93;;;;;;;29.19;47.20;100579.55;1716745;83;21224;-58
2021/07/28 07:29:09;;;;;;;28.60;12.45;;;;;;;29.20;47.08;100579.84;1715872;83;21827;-60
2021/07/28 07:32:14;;;;;;;24.82;12.35;;;;;;;29.18;47.37;100579.84;1722901;83;21208;-58
2021/07/28 07:35:20;;;;;;;26.12;12.80;;;;;;;29.13;47.66;100581.28;1715659;83;21266;-58
2021/07/28 07:38:30;;;;;;;22.25;12.30;;;;;;;29.03;47.84;100577.11;1731977;80;21212;-58
2021/07/28 07:41:35;;;;;;;29.27;12.18;;;;;;;28.94;48.04;100584.48;1755086;79;21734;-62
2021/07/28 07:44:48;;;;;;;27.02;12.03;;;;;;;28.86;48.59;100583.72;1710185;83;21643;-59
2021/07/28 07:47:55;;;;;;;29.25;13.22;;;;;;;28.78;48.98;100587.15;1730574;83;21785;-61
2021/07/28 07:51:01;;;;;;;32.25;12.60;;;;;;;28.72;49.88;100593.92;1731277;83;21402;-61
2021/07/28 07:54:08;;;;;;;27.37;12.05;;;;;;;28.66;50.38;100602.98;1731290;83;21826;-60
2021/07/28 07:57:13;;;;;;;18.90;11.68;;;;;;;28.59;50.85;100605.84;1767625;81;21168;-61
2021/07/28 08:00:19;;;;;;;28.45;12.35;;;;;;;28.51;52.39;100610.67;1769618;79;21225;-60
2021/07/28 08:03:24;;;;;;;25.10;12.20;;;;;;;28.43;53.54;100614.86;1749438;81;21428;-59
2021/07/28 08:06:30;;;;;;;27.15;13.65;;;;;;;28.34;54.38;100615.19;1754876;81;21217;-60
2021/07/28 08:09:36;;;;;;;33.28;14.58;;;;;;;28.28;54.52;100614.08;1747623;82;21210;-60
2021/07/28 08:12:43;;;;;;;28.75;14.55;;;;;;;28.25;54.63;100612.70;1743888;82;21206;-59
2021/07/28 08:15:53;;;;;;;25.55;13.85;;;;;;;28.25;55.39;100617.47;1753562;80;21338;-62
2021/07/28 08:19:00;;;;;;;32.08;14.80;;;;;;;28.25;54.90;100613.25;1753687;82;21217;-59
2021/07/28 08:22:07;;;;;;;28.75;13.08;;;;;;;28.25;55.08;100621.70;1745353;82;21237;-59
2021/07/28 08:25:13;;;;;;;30.95;12.75;;;;;;;28.23;55.27;100615.50;1722782;82;21387;-60
2021/07/28 08:28:21;;;;;;;26.48;12.85;;;;;;;28.20;56.22;100611.30;1714063;82;21256;-59
2021/07/28 08:31:27;;;;;;;30.17;13.35;;;;;;;28.16;56.48;100617.80;1749584;81;21269;-59
2021/07/28 08:34:34;;;;;;;24.77;12.55;;;;;;;28.12;56.71;100629.33;1770624;79;21240;-59
2021/07/28 08:37:42;;;;;;;30.15;13.55;;;;;;;28.10;57.28;100629.62;1722422;81;22019;-59
2021/07/28 08:40:48;;;;;;;27.95;13.48;;;;;;;28.13;57.93;100611.33;1739808;82;21217;-60
2021/07/28 08:43:58;;;;;;;25.82;13.13;;;;;;;28.18;58.31;100617.77;1741846;81;21435;-59
2021/07/28 08:47:05;;;;;;;24.77;13.48;;;;;;;28.26;58.13;100608.73;1766819;79;21333;-59
2021/07/28 08:50:14;;;;;;;29.27;13.62;;;;;;;28.28;57.31;100612.12;1722521;81;21438;-60
2021/07/28 08:53:20;;;;;;;23.50;13.78;;;;;;;28.24;57.91;100620.84;1759897;80;21197;-59
2021/07/28 08:56:26;;;;;;;33.98;13.80;;;;;;;28.24;57.45;100629.88;1747771;80;22784;-57
2021/07/28 08:59:55;;;;;;;44.73;14.60;;;;;;;28.24;57.67;100634.11;1768464;80;21185;-59
2021/07/28 09:03:03;;;;;;;31.50;13.68;;;;;;;28.22;58.01;100640.02;1652302;85;21309;-60
2021/07/28 09:06:14;;;;;;;29.30;14.25;;;;;;;28.20;58.89;100632.42;1653495;84;21224;-59
2021/07/28 09:09:22;;;;;;;24.67;13.45;;;;;;;28.18;59.49;100633.84;1646222;85;21262;-58
2021/07/28 09:12:37;;;;;;;34.70;15.28;;;;;;;28.15;59.52;100628.20;1661460;86;21270;-58
2021/07/28 09:15:45;;;;;;;39.13;17.27;;;;;;;28.10;59.94;100626.80;1648696;86;21295;-59
2021/07/28 09:18:55;;;;;;;36.70;17.42;;;;;;;28.14;60.19;100630.75;1694461;82;21185;-62
2021/07/28 09:22:06;;;;;;;33.08;15.08;;;;;;;28.16;60.63;100626.23;1698324;84;21245;-59
2021/07/28 09:25:31;;;;;;;22.75;13.68;;;;;;;28.14;61.39;100628.48;1698656;84;21339;-60
2021/07/28 09:28:33;;;;;;;25.88;14.28;;;;;;;28.10;61.36;100625.39;1703555;82;21365;-60
2021/07/28 09:31:42;;;;;;;30.50;16.27;;;;;;;28.03;61.40;100619.23;1724742;81;21403;-59
2021/07/28 09:34:47;;;;;;;27.40;15.38;;;;;;;28.01;61.67;100611.62;1690313;84;21473;-61
2021/07/28 09:37:52;;;;;;;38.15;14.73;;;;;;;28.07;61.68;100608.25;1701141;84;21185;-59
2021/07/28 09:40:57;;;;;;;32.95;15.35;;;;;;;28.17;61.45;100603.98;1703720;82;21280;-59
2021/07/28 09:44:10;;;;;;;30.45;15.53;;;;;;;28.26;61.35;100603.70;1698366;84;21410;-59
2021/07/28 09:47:24;;;;;;;24.65;14.93;;;;;;;28.37;60.77;100601.12;1697925;84;21288;-60
2021/07/28 09:50:30;;;;;;;21.20;13.38;;;;;;;28.42;60.46;100607.56;1713899;81;21645;-66
2021/07/28 09:53:39;;;;;;;29.35;14.18;;;;;;;28.48;59.26;100605.61;1723077;83;21201;-60
2021/07/28 09:57:01;;;;;;;24.90;14.00;;;;;;;28.52;58.08;100599.11;1719797;83;21288;-59
2021/07/28 10:00:09;;;;;;;23.73;12.60;;;;;;;28.59;57.43;100594.58;1719338;83;21892;-60
2021/07/28 10:03:15;;;;;;;24.72;12.93;;;;;;;28.68;55.81;100601.28;1727162;82;21374;-59
2021/07/28 10:06:26;;;;;;;25.37;14.03;;;;;;;28.74;54.98;100591.11;1719990;82;21457;-58
2021/07/28 10:09:45;;;;;;;20.05;12.63;;;;;;;28.81;55.45;100585.16;1742503;82;21358;-58
2021/07/28 10:12:51;;;;;;;19.57;11.68;;;;;;;28.84;55.28;100578.93;1691559;82;21436;-59
2021/07/28 10:15:57;;;;;;;24.10;12.18;;;;;;;28.84;54.17;100577.52;1696257;84;21414;-58
2021/07/28 10:19:04;;;;;;;22.90;12.05;;;;;;;28.82;53.78;100572.73;1696564;84;21354;-58
2021/07/28 10:22:13;;;;;;;17.95;11.80;;;;;;;28.80;54.12;100566.53;1725307;83;21395;-59
2021/07/28 10:25:24;;;;;;;18.92;12.58;;;;;;;28.77;54.79;100558.67;1708588;82;21711;-59
2021/07/28 10:28:32;;;;;;;20.48;12.63;;;;;;;28.71;55.87;100555.05;1696496;84;21829;-60
2021/07/28 10:31:58;;;;;;;22.77;12.45;;;;;;;28.67;56.36;100548.88;1696133;84;21249;-60
2021/07/28 10:35:27;;;;;;;20.05;12.95;;;;;;;28.67;56.47;100548.88;1702157;84;21335;-58
2021/07/28 10:38:32;;;;;;;30.97;15.53;;;;;;;28.70;55.74;100538.44;1716026;83;21201;-58
2021/07/28 10:41:53;;;;;;;25.25;14.33;;;;;;;28.78;55.62;100538.64;1724145;83;21650;-58
2021/07/28 10:45:11;;;;;;;19.10;12.35;;;;;;;28.88;54.72;100526.46;1715217;82;21194;-58
2021/07/28 10:48:16;;;;;;;19.12;12.50;;;;;;;28.99;54.09;100519.05;1712718;82;21914;-58
2021/07/28 10:51:57;;;;;;;20.08;11.53;;;;;;;29.11;53.79;100528.59;1716900;82;21260;-59
2021/07/28 10:55:10;;;;;;;20.30;12.98;;;;;;;29.18;53.33;100529.93;1724225;82;21437;-59
2021/07/28 10:58:20;;;;;;;22.70;12.53;;;;;;;29.24;53.02;100530.71;1719440;82;21223;-58
2021/07/28 11:01:26;;;;;;;23.92;12.58;;;;;;;29.28;52.94;100531.82;1711778;82;21221;-57
2021/07/28 11:04:33;;;;;;;26.70;14.60;;;;;;;29.29;52.54;100534.91;1712809;80;21225;-58
2021/07/28 11:08:24;;;;;;;23.25;12.37;;;;;;;29.28;52.29;100533.23;1710701;82;21275;-58
2021/07/28 11:11:29;;;;;;;24.00;12.98;;;;;;;29.37;52.37;100537.09;1718227;82;21283;-58
2021/07/28 11:14:37;;;;;;;23.57;11.53;;;;;;;29.49;51.61;100526.84;1718770;81;21345;-58
2021/07/28 11:17:46;;;;;;;18.27;11.03;;;;;;;29.54;51.23;100516.36;1710285;82;21168;-58
2021/07/28 11:20:51;;;;;;;18.45;11.38;;;;;;;29.56;50.93;100512.64;1706867;82;21689;-58
2021/07/28 11:24:03;;;;;;;18.77;10.30;;;;;;;29.57;50.21;100505.03;1745491;82;21418;-57
2021/07/28 11:27:17;;;;;;;17.57;10.58;;;;;;;29.57;50.11;100500.23;1703468;81;21199;-60
2021/07/28 11:30:24;;;;;;;18.25;10.70;;;;;;;29.59;49.86;100506.41;1721019;82;21590;-58
2021/07/28 11:33:32;;;;;;;15.98;11.22;;;;;;;29.66;49.13;100504.12;1726090;81;21183;-58
2021/07/28 11:36:39;;;;;;;16.20;10.00;;;;;;;29.82;48.60;100500.55;1736175;82;22207;-58
2021/07/28 11:39:48;;;;;;;19.82;11.00;;;;;;;30.01;48.85;100491.57;1723399;81;21742;-58
2021/07/28 11:42:54;;;;;;;21.75;11.08;;;;;;;30.19;48.45;100493.02;1679628;84;21261;-58
2021/07/28 11:46:02;;;;;;;20.68;10.75;;;;;;;30.41;47.93;100491.90;1709028;82;21389;-57
2021/07/28 11:49:15;;;;;;;21.93;11.10;;;;;;;30.41;47.93;100491.90;1725105;82;21196;-58
2021/07/28 11:52:21;;;;;;;17.80;10.28;;;;;;;30.54;48.95;100479.84;1726241;82;21248;-59
2021/07/28 11:55:30;;;;;;;21.87;10.60;;;;;;;30.68;47.61;100473.70;1727969;83;21477;-58
2021/07/28 11:58:36;;;;;;;16.97;10.05;;;;;;;30.87;46.16;100473.73;1703519;83;21877;-58
2021/07/28 12:01:44;;;;;;;15.38;9.13;;;;;;;30.97;46.15;100476.97;1737308;82;21385;-59
2021/07/28 12:04:50;;;;;;;16.42;9.55;;;;;;;31.09;46.56;100473.08;1728825;82;21203;-59
2021/07/28 12:08:05;;;;;;;15.72;9.48;;;;;;;31.15;45.55;100471.84;1730951;81;22311;-59
2021/07/28 12:11:15;;;;;;;15.43;9.75;;;;;;;31.21;45.41;100457.30;1684620;85;21257;-58
2021/07/28 12:14:35;;;;;;;14.83;8.53;;;;;;;31.35;45.36;100458.80;1689077;84;21288;-59
2021/07/28 12:17:42;;;;;;;14.78;9.03;;;;;;;31.47;45.02;100454.88;1689038;84;21568;-59
2021/07/28 12:20:51;;;;;;;16.95;7.33;;;;;;;31.55;43.97;100459.25;1688879;84;21398;-58
2021/07/28 12:24:03;;;;;;;13.55;6.90;;;;;;;31.60;43.35;100454.06;1698615;84;21205;-60
2021/07/28 12:27:38;;;;;;;11.75;6.95;;;;;;;31.62;42.04;100453.19;1697322;84;21364;-58
2021/07/28 12:30:48;;;;;;;9.00;6.50;;;;;;;31.60;41.56;100449.22;1727032;83;21233;-59
2021/07/28 12:33:54;;;;;;;13.05;6.33;;;;;;;31.58;41.32;100439.38;1728022;82;21762;-57
2021/07/28 12:37:26;;;;;;;18.40;6.30;;;;;;;31.61;41.37;100442.99;1725003;82;21283;-58
2021/07/28 12:40:32;;;;;;;13.38;5.87;;;;;;;31.73;40.90;100441.92;1699588;84;21375;-58
2021/07/28 12:43:52;;;;;;;13.40;7.08;;;;;;;31.87;41.13;100439.95;1657426;85;21204;-58
2021/07/28 12:46:58;;;;;;;13.00;7.30;;;;;;;31.98;41.07;100444.25;1699093;84;21205;-58
2021/07/28 12:50:06;;;;;;;11.38;7.12;;;;;;;32.03;40.68;100433.63;1657889;86;21244;-58
2021/07/28 12:53:14;;;;;;;14.93;6.70;;;;;;;32.07;40.44;100431.58;1629728;88;21249;-58
2021/07/28 12:56:22;;;;;;;9.93;6.17;;;;;;;32.13;40.17;100428.32;1657562;85;21248;-57
2021/07/28 12:59:28;;;;;;;12.28;6.33;;;;;;;32.31;40.13;100422.26;1656673;85;21251;-57
2021/07/28 13:02:34;;;;;;;12.37;6.25;;;;;;;32.38;40.04;100422.70;1682221;83;21205;-58
2021/07/28 13:05:44;;;;;;;11.60;5.90;;;;;;;32.39;39.88;100418.70;1672522;82;21270;-59
2021/07/28 13:08:52;;;;;;;8.95;6.10;;;;;;;32.38;40.08;100405.09;1671153;85;21748;-58
2021/07/28 13:11:58;;;;;;;10.88;5.70;;;;;;;32.37;40.47;100406.27;1666717;84;21413;-59
2021/07/28 13:15:05;;;;;;;12.00;6.30;;;;;;;32.28;40.31;100405.33;1663498;86;21381;-59
2021/07/28 13:18:10;;;;;;;12.25;6.28;;;;;;;32.22;41.00;100405.19;1663770;85;21247;-59
2021/07/28 13:21:19;;;;;;;12.78;6.70;;;;;;;32.28;40.51;100395.97;1667564;85;21385;-57
2021/07/28 13:24:24;;;;;;;13.18;5.90;;;;;;;32.32;40.65;100394.20;1647541;86;21215;-58
2021/07/28 13:27:34;;;;;;;11.43;5.60;;;;;;;32.41;41.10;100386.63;1660391;86;21819;-59
2021/07/28 13:30:40;;;;;;;10.00;6.22;;;;;;;32.51;40.58;100390.66;1672242;85;21229;-58
2021/07/28 13:33:46;;;;;;;9.30;5.87;;;;;;;32.59;40.21;100380.78;1672011;86;21220;-58
2021/07/28 13:36:54;;;;;;;10.20;6.25;;;;;;;32.63;38.72;100371.91;1672086;85;21209;-58
2021/07/28 13:40:08;;;;;;;12.85;5.22;;;;;;;32.66;38.68;100375.52;1672369;86;21205;-58
2021/07/28 13:43:14;;;;;;;13.28;5.80;;;;;;;32.70;37.86;100369.44;1657071;86;21350;-58
2021/07/28 13:46:23;;;;;;;12.47;5.58;;;;;;;32.66;37.89;100364.73;1656354;85;21217;-57
2021/07/28 13:49:31;;;;;;;12.68;5.67;;;;;;;32.59;38.21;100368.59;1670748;85;21241;-57
2021/07/28 13:52:37;;;;;;;10.10;5.28;;;;;;;32.55;38.17;100356.23;1669133;86;21199;-57
2021/07/28 13:55:42;;;;;;;11.35;5.05;;;;;;;32.58;37.77;100359.84;1725714;83;21378;-59
2021/07/28 13:58:52;;;;;;;9.18;5.08;;;;;;;32.65;37.52;100348.89;1676949;85;21233;-58
2021/07/28 14:02:00;;;;;;;11.48;5.55;;;;;;;32.78;37.43;100336.05;1725328;83;21359;-58
2021/07/28 14:05:10;;;;;;;12.93;5.90;;;;;;;32.88;36.98;100343.45;1722730;82;21383;-59
2021/07/28 14:08:21;;;;;;;10.35;5.00;;;;;;;32.81;36.80;100336.81;1684951;85;21216;-59
2021/07/28 14:11:26;;;;;;;8.95;5.53;;;;;;;32.68;36.67;100332.05;1651216;86;21236;-59
2021/07/28 14:14:35;;;;;;;10.08;6.15;;;;;;;32.57;37.28;100339.14;1650007;86;21811;-58
2021/07/28 14:17:40;;;;;;;11.43;5.60;;;;;;;32.54;37.81;100338.97;1633809;86;21783;-57
2021/07/28 14:20:50;;;;;;;13.20;6.30;;;;;;;32.58;37.99;100339.98;1661495;85;21286;-57
2021/07/28 14:23:55;;;;;;;12.40;6.17;;;;;;;32.60;37.98;100339.91;1646163;85;21238;-58